Time;durP1;ratioP1;P1;durP2;ratioP2;P2;SDS_P1;SDS_P2;PMS_P1;PMS_P2;Temp;Humidity;BMP_temperature;BMP_pressure;BME280_temperature;BME280_humidity;BME280_pressure;Samples;Min_cycle;Max_cycle;Signal;HPM_P1;HPM_P2
2022/06/21 00:00:28;;;;;;;8.82;2.00;;;14.10;97.50;;;;;;5038346;28;45337;-70
2022/06/21 00:03:00;;;;;;;4.97;1.90;;;14.00;97.50;;;;;;5036462;28;45402;-70
2022/06/21 00:05:30;;;;;;;7.13;2.25;;;14.00;97.50;;;;;;5040665;28;45259;-71
2022/06/21 00:07:57;;;;;;;6.00;2.20;;;13.90;98.00;;;;;;5037465;28;46785;-70
2022/06/21 00:10:24;;;;;;;3.10;1.83;;;13.70;98.80;;;;;;5039717;28;45302;-70
2022/06/21 00:12:51;;;;;;;4.70;1.77;;;13.70;98.70;;;;;;5036527;28;45532;-70
2022/06/21 00:15:18;;;;;;;3.38;2.10;;;13.80;99.60;;;;;;5039589;28;45539;-70
2022/06/21 00:17:49;;;;;;;4.88;2.30;;;13.40;99.90;;;;;;5040090;28;45885;-70
2022/06/21 00:20:20;;;;;;;7.35;2.00;;;13.00;99.90;;;;;;5037632;28;45463;-70
2022/06/21 00:22:47;;;;;;;6.40;2.45;;;12.90;99.90;;;;;;5036959;28;47074;-70
2022/06/21 00:25:19;;;;;;;5.35;2.13;;;13.00;99.90;;;;;;5038260;28;47391;-70
2022/06/21 00:27:46;;;;;;;5.00;2.13;;;13.00;99.90;;;;;;5038894;28;45312;-70
2022/06/21 00:30:14;;;;;;;6.90;2.80;;;12.90;99.90;;;;;;5042501;28;45218;-70
2022/06/21 00:32:42;;;;;;;6.13;2.03;;;12.90;99.90;;;;;;5040580;28;45177;-70
2022/06/21 00:35:14;;;;;;;6.30;2.20;;;12.90;99.90;;;;;;5037223;28;46200;-70
2022/06/21 00:37:42;;;;;;;7.57;2.45;;;13.00;99.90;;;;;;5043582;28;45925;-70
2022/06/21 00:40:19;;;;;;;4.00;1.95;;;13.10;99.90;;;;;;5036542;28;45298;-70
2022/06/21 00:42:51;;;;;;;5.95;2.45;;;13.00;99.90;;;;;;5038160;28;45321;-70
2022/06/21 00:45:28;;;;;;;5.30;2.42;;;12.90;99.90;;;;;;5041735;28;45321;-70
2022/06/21 00:47:58;;;;;;;3.97;2.53;;;13.00;99.90;;;;;;5038870;28;45363;-70
2022/06/21 00:50:30;;;;;;;5.90;2.40;;;13.10;99.90;;;;;;5038071;28;45387;-70
2022/06/21 00:53:01;;;;;;;8.82;2.35;;;13.20;99.90;;;;;;5039731;28;45341;-69
2022/06/21 00:55:37;;;;;;;4.32;2.20;;;13.20;99.90;;;;;;5036630;28;45785;-70
2022/06/21 00:58:06;;;;;;;4.90;2.38;;;13.30;99.90;;;;;;5041508;28;45312;-70
2022/06/21 01:00:36;;;;;;;6.18;2.00;;;13.30;99.90;;;;;;5035389;28;45224;-69
2022/06/21 01:03:08;;;;;;;3.33;2.22;;;13.40;99.90;;;;;;5037608;28;45953;-69
2022/06/21 01:05:42;;;;;;;7.50;2.28;;;13.40;99.90;;;;;;5030589;28;46185;-69
2022/06/21 01:08:16;;;;;;;5.35;2.60;;;13.50;99.90;;;;;;5036767;28;45377;-69
2022/06/21 01:10:45;;;;;;;4.85;2.38;;;13.60;99.90;;;;;;5039201;28;45320;-69
2022/06/21 01:13:15;;;;;;;6.05;2.40;;;13.60;99.90;;;;;;5036448;28;45434;-69
2022/06/21 01:15:46;;;;;;;4.03;1.92;;;13.60;99.90;;;;;;5035161;28;47682;-69
2022/06/21 01:18:17;;;;;;;8.90;2.55;;;13.50;99.90;;;;;;5039364;28;45570;-69
2022/06/21 01:20:48;;;;;;;8.50;2.42;;;13.40;99.90;;;;;;5040944;28;46699;-69
2022/06/21 01:23:24;;;;;;;13.27;2.92;;;13.40;99.90;;;;;;5046205;28;45216;-69
2022/06/21 01:25:59;;;;;;;7.88;2.75;;;13.40;99.90;;;;;;5061096;28;46203;-69
2022/06/21 01:28:28;;;;;;;5.90;2.67;;;13.30;99.90;;;;;;5045926;28;45532;-69
2022/06/21 01:30:57;;;;;;;4.80;2.30;;;13.30;99.90;;;;;;5041122;28;45142;-70
2022/06/21 01:33:29;;;;;;;7.53;2.88;;;13.40;99.90;;;;;;5052220;28;45315;-69
2022/06/21 01:35:59;;;;;;;6.75;2.60;;;13.30;99.90;;;;;;5049714;28;45213;-69
2022/06/21 01:38:30;;;;;;;7.88;2.50;;;13.20;99.90;;;;;;5045970;28;45237;-69
2022/06/21 01:41:02;;;;;;;10.00;2.50;;;13.30;99.90;;;;;;5041413;28;46007;-70
2022/06/21 01:43:34;;;;;;;4.78;2.45;;;13.20;99.90;;;;;;5036553;28;45221;-69
2022/06/21 01:46:03;;;;;;;5.22;2.42;;;13.10;99.90;;;;;;5050004;28;45344;-70
2022/06/21 01:48:34;;;;;;;5.93;2.95;;;13.00;99.90;;;;;;5045044;28;45496;-69
2022/06/21 01:51:05;;;;;;;5.53;2.15;;;12.90;99.90;;;;;;5040795;28;45281;-70
2022/06/21 01:53:33;;;;;;;6.53;2.50;;;12.80;99.90;;;;;;5041312;28;45436;-69
2022/06/21 01:56:02;;;;;;;6.70;2.38;;;12.70;99.90;;;;;;5042917;28;47384;-69
2022/06/21 01:58:33;;;;;;;9.13;2.47;;;12.70;99.90;;;;;;5044465;28;45627;-69
2022/06/21 02:01:06;;;;;;;7.82;2.83;;;12.80;99.90;;;;;;5045407;28;45533;-69
2022/06/21 02:03:37;;;;;;;8.95;2.97;;;12.70;99.90;;;;;;5041880;28;45559;-69
2022/06/21 02:06:08;;;;;;;7.15;2.70;;;12.60;99.90;;;;;;5046514;28;45306;-69
2022/06/21 02:08:41;;;;;;;6.75;2.90;;;12.60;99.90;;;;;;5044881;28;45537;-69
2022/06/21 02:11:13;;;;;;;7.82;2.75;;;12.60;99.90;;;;;;5041243;28;45258;-69
2022/06/21 02:13:46;;;;;;;7.15;2.92;;;12.60;99.90;;;;;;5052919;28;45182;-69
2022/06/21 02:16:16;;;;;;;6.03;3.30;;;12.50;99.90;;;;;;5037119;28;47736;-69
2022/06/21 02:18:56;;;;;;;6.80;2.97;;;12.50;99.90;;;;;;5043849;28;45233;-69
2022/06/21 02:21:28;;;;;;;7.60;3.17;;;12.50;99.90;;;;;;5044721;28;45187;-69
2022/06/21 02:23:58;;;;;;;6.13;3.13;;;12.40;99.90;;;;;;5053377;28;45231;-69
2022/06/21 02:26:28;;;;;;;10.73;3.50;;;12.40;99.90;;;;;;5052326;28;47395;-68
2022/06/21 02:28:56;;;;;;;6.57;2.80;;;12.30;99.90;;;;;;5051140;28;45668;-69
2022/06/21 02:31:26;;;;;;;4.75;2.70;;;12.30;99.90;;;;;;5043455;28;45330;-69
2022/06/21 02:33:54;;;;;;;5.50;2.90;;;12.40;99.90;;;;;;5043140;28;46353;-69
2022/06/21 02:36:26;;;;;;;7.20;2.75;;;12.20;99.90;;;;;;5038988;28;46190;-69
2022/06/21 02:38:56;;;;;;;4.75;3.20;;;11.60;99.90;;;;;;5044404;28;45561;-69
2022/06/21 02:41:28;;;;;;;6.18;2.90;;;11.40;99.90;;;;;;5039289;28;45368;-69
2022/06/21 02:44:01;;;;;;;7.60;3.25;;;11.40;99.90;;;;;;5041997;28;45319;-69
2022/06/21 02:46:31;;;;;;;7.63;3.40;;;11.30;99.90;;;;;;5043907;28;47031;-68
2022/06/21 02:49:02;;;;;;;9.77;2.75;;;11.40;99.90;;;;;;5050002;28;45322;-68
2022/06/21 02:51:35;;;;;;;10.25;3.40;;;11.50;99.90;;;;;;5042538;28;45175;-69
2022/06/21 02:54:08;;;;;;;7.50;3.58;;;11.60;99.90;;;;;;5042065;28;45333;-68
2022/06/21 02:56:40;;;;;;;10.95;3.30;;;11.70;99.90;;;;;;5040347;28;45232;-69
2022/06/21 02:59:10;;;;;;;7.57;3.00;;;11.60;99.90;;;;;;5038325;28;45290;-68
2022/06/21 03:01:42;;;;;;;8.63;3.17;;;11.70;99.90;;;;;;5047053;28;45947;-68
2022/06/21 03:04:18;;;;;;;11.98;3.55;;;11.80;99.90;;;;;;5042339;28;45408;-68
2022/06/21 03:06:45;;;;;;;8.55;3.00;;;11.80;99.90;;;;;;5049966;28;45468;-68
2022/06/21 03:09:17;;;;;;;7.28;3.65;;;11.90;99.90;;;;;;5041257;28;45406;-68
2022/06/21 03:11:47;;;;;;;7.00;3.45;;;12.00;99.90;;;;;;5030889;28;45496;-68
2022/06/21 03:14:25;;;;;;;10.77;3.35;;;12.10;99.90;;;;;;5036421;28;45244;-68
2022/06/21 03:16:53;;;;;;;15.02;4.03;;;12.20;99.90;;;;;;5033477;28;47907;-69
2022/06/21 03:19:26;;;;;;;7.35;3.47;;;12.20;99.90;;;;;;5040291;28;45966;-68
2022/06/21 03:21:54;;;;;;;8.45;3.60;;;12.10;99.90;;;;;;5043281;28;45323;-69
2022/06/21 03:24:24;;;;;;;10.80;4.10;;;12.20;99.90;;;;;;5040393;28;45630;-68
2022/06/21 03:26:56;;;;;;;9.98;5.10;;;12.10;99.90;;;;;;5046670;28;45638;-68
2022/06/21 03:29:24;;;;;;;14.23;4.00;;;12.20;99.90;;;;;;5042721;28;45733;-68
2022/06/21 03:31:52;;;;;;;9.02;3.80;;;12.20;99.90;;;;;;5050174;28;45273;-68
2022/06/21 03:34:21;;;;;;;12.73;3.65;;;12.30;99.90;;;;;;5041954;28;45426;-68
2022/06/21 03:36:49;;;;;;;7.68;3.55;;;12.30;99.90;;;;;;5044634;28;46449;-68
2022/06/21 03:39:19;;;;;;;10.93;3.45;;;12.60;99.90;;;;;;5044146;28;45343;-68
2022/06/21 03:41:46;;;;;;;5.55;3.05;;;12.40;99.90;;;;;;5039364;28;45172;-68
2022/06/21 03:44:20;;;;;;;7.57;3.50;;;12.30;99.90;;;;;;5042891;28;45387;-68
2022/06/21 03:46:52;;;;;;;10.95;3.50;;;12.50;99.90;;;;;;5040472;28;45366;-69
2022/06/21 03:49:26;;;;;;;6.65;3.60;;;12.50;99.90;;;;;;5041384;28;45386;-69
2022/06/21 03:51:55;;;;;;;9.98;4.28;;;12.40;99.90;;;;;;5041159;28;45257;-68
2022/06/21 03:54:29;;;;;;;10.93;3.92;;;12.30;99.90;;;;;;5038152;28;46080;-68
2022/06/21 03:57:02;;;;;;;9.55;3.65;;;12.30;99.90;;;;;;5042569;28;45170;-68
2022/06/21 03:59:35;;;;;;;9.88;3.50;;;11.90;99.90;;;;;;5040472;28;45154;-68
2022/06/21 04:02:09;;;;;;;10.25;3.38;;;12.20;99.90;;;;;;5048098;28;45435;-68
2022/06/21 04:04:40;;;;;;;6.45;3.22;;;11.90;99.90;;;;;;5037948;28;45284;-69
2022/06/21 04:07:13;;;;;;;8.25;3.40;;;11.30;99.90;;;;;;5042518;28;48339;-68
2022/06/21 04:09:46;;;;;;;11.07;3.47;;;11.30;99.90;;;;;;5039145;28;45309;-68
2022/06/21 04:12:19;;;;;;;10.00;4.00;;;11.30;99.90;;;;;;5039132;28;45277;-68
2022/06/21 04:14:49;;;;;;;14.43;3.95;;;11.40;99.90;;;;;;5039638;28;45233;-68
2022/06/21 04:17:23;;;;;;;9.05;3.97;;;11.40;99.90;;;;;;5215693;22;46171;-64
2022/06/21 04:19:58;;;;;;;12.35;3.85;;;11.80;99.90;;;;;;5033722;28;45336;-64
2022/06/21 04:22:28;;;;;;;9.82;4.03;;;12.10;99.90;;;;;;5041009;28;45304;-64
2022/06/21 04:25:02;;;;;;;17.27;4.60;;;12.20;99.90;;;;;;5046041;28;45114;-64
2022/06/21 04:27:34;;;;;;;5.97;3.60;;;12.10;99.90;;;;;;5040356;28;46378;-64
2022/06/21 04:30:04;;;;;;;8.55;3.67;;;12.20;99.90;;;;;;5034930;28;45597;-64
2022/06/21 04:32:36;;;;;;;8.48;3.85;;;12.50;99.90;;;;;;5040261;28;45184;-64
2022/06/21 04:35:06;;;;;;;6.70;3.30;;;12.80;99.90;;;;;;5038198;28;45241;-64
2022/06/21 04:37:39;;;;;;;6.75;3.60;;;12.90;99.90;;;;;;5044627;28;45379;-64
2022/06/21 04:40:10;;;;;;;7.35;3.55;;;13.00;99.90;;;;;;5041154;28;45201;-64
2022/06/21 04:42:43;;;;;;;11.20;3.75;;;13.00;99.90;;;;;;5041331;28;45364;-64
2022/06/21 04:45:18;;;;;;;8.07;3.70;;;13.10;99.90;;;;;;5037376;28;45484;-64
2022/06/21 04:47:52;;;;;;;9.70;4.05;;;13.30;99.90;;;;;;5042436;28;46778;-65
2022/06/21 04:50:26;;;;;;;8.27;3.13;;;13.30;99.90;;;;;;5039851;28;45276;-65
2022/06/21 04:52:58;;;;;;;7.93;3.38;;;13.30;99.90;;;;;;5045480;28;45268;-65
2022/06/21 04:55:33;;;;;;;7.60;3.33;;;13.30;99.90;;;;;;5044717;28;45856;-64
2022/06/21 04:57:59;;;;;;;13.45;3.30;;;13.40;99.90;;;;;;5052322;28;46207;-65
2022/06/21 05:00:26;;;;;;;8.65;3.38;;;13.40;99.90;;;;;;5047553;28;45150;-65
2022/06/21 05:02:59;;;;;;;7.45;3.35;;;13.40;99.90;;;;;;5046420;28;45192;-65
2022/06/21 05:05:29;;;;;;;8.20;3.20;;;13.40;99.90;;;;;;5043286;28;45246;-65
2022/06/21 05:08:02;;;;;;;8.27;3.45;;;13.50;99.90;;;;;;5045006;28;45230;-65
2022/06/21 05:10:31;;;;;;;7.55;3.38;;;13.50;99.90;;;;;;5045565;28;45299;-65
2022/06/21 05:13:01;;;;;;;10.65;3.70;;;13.60;99.90;;;;;;5041200;28;45407;-65
2022/06/21 05:15:33;;;;;;;13.10;3.38;;;13.70;99.90;;;;;;5038750;28;45348;-65
2022/06/21 05:18:05;;;;;;;7.75;3.40;;;13.80;99.90;;;;;;5042061;28;45283;-65
2022/06/21 05:20:35;;;;;;;9.43;3.10;;;13.70;99.90;;;;;;5042654;28;45351;-65
2022/06/21 05:23:05;;;;;;;7.07;3.20;;;13.70;99.90;;;;;;5044801;28;45428;-65
2022/06/21 05:25:35;;;;;;;12.35;3.33;;;13.90;99.90;;;;;;5050328;28;45511;-65
2022/06/21 05:28:12;;;;;;;13.55;3.10;;;13.90;99.90;;;;;;5050511;28;45315;-65
2022/06/21 05:30:43;;;;;;;12.75;3.13;;;14.00;99.90;;;;;;5045041;28;45297;-65
2022/06/21 05:33:16;;;;;;;5.15;2.70;;;14.30;99.90;;;;;;5042514;28;45098;-65
2022/06/21 05:35:44;;;;;;;10.27;3.00;;;14.30;99.90;;;;;;5044418;28;45293;-65
2022/06/21 05:38:17;;;;;;;6.07;2.97;;;14.40;99.90;;;;;;5048982;28;45597;-65
2022/06/21 05:40:51;;;;;;;5.88;2.40;;;14.50;99.90;;;;;;5043115;28;45135;-65
2022/06/21 05:43:20;;;;;;;8.13;2.92;;;14.50;99.90;;;;;;5041568;28;46345;-65
2022/06/21 05:45:54;;;;;;;8.82;2.55;;;15.00;99.90;;;;;;5042266;28;45515;-66
2022/06/21 05:48:25;;;;;;;8.52;3.45;;;14.80;99.90;;;;;;5046861;28;45518;-65
2022/06/21 05:50:52;;;;;;;13.95;2.85;;;14.90;99.90;;;;;;5044586;28;45941;-66
2022/06/21 05:53:28;;;;;;;14.57;3.95;;;16.00;98.20;;;;;;5040833;28;45481;-66
2022/06/21 05:55:56;;;;;;;7.35;2.78;;;15.60;99.60;;;;;;5039134;28;46210;-66
2022/06/21 05:58:26;;;;;;;6.82;3.10;;;15.20;99.90;;;;;;5041445;28;46314;-67
2022/06/21 06:00:59;;;;;;;5.93;2.00;;;15.80;98.60;;;;;;5044718;28;45624;-67
2022/06/21 06:03:31;;;;;;;7.00;3.00;;;16.40;97.70;;;;;;5044554;28;45229;-67
2022/06/21 06:06:04;;;;;;;6.90;3.05;;;15.50;99.20;;;;;;5059849;28;45492;-66
2022/06/21 06:08:36;;;;;;;7.53;3.03;;;15.30;99.90;;;;;;5042096;28;46115;-66
2022/06/21 06:11:06;;;;;;;11.38;3.83;;;15.90;98.60;;;;;;5041020;28;46407;-66
2022/06/21 06:13:37;;;;;;;4.72;1.70;;;15.50;99.80;;;;;;5043416;28;45235;-67
2022/06/21 06:16:11;;;;;;;3.65;1.83;;;16.30;98.50;;;;;;5038275;28;45383;-67
2022/06/21 06:18:48;;;;;;;7.05;2.55;;;17.40;93.50;;;;;;5042252;28;48180;-67
2022/06/21 06:21:20;;;;;;;8.75;2.90;;;16.70;95.30;;;;;;5040328;28;45430;-67
2022/06/21 06:23:53;;;;;;;5.30;2.75;;;16.40;96.60;;;;;;5045537;28;45427;-67
2022/06/21 06:26:22;;;;;;;2.50;1.65;;;16.20;97.50;;;;;;5043647;28;45252;-67
2022/06/21 06:28:56;;;;;;;7.78;2.42;;;17.50;94.70;;;;;;5039815;28;46181;-68
2022/06/21 06:31:27;;;;;;;7.80;2.20;;;17.60;93.00;;;;;;5042659;28;45368;-67
2022/06/21 06:34:00;;;;;;;7.57;2.78;;;16.70;95.00;;;;;;5040453;28;45300;-67
2022/06/21 06:36:32;;;;;;;4.88;2.22;;;16.30;96.20;;;;;;5041557;28;45351;-67
2022/06/21 06:39:00;;;;;;;7.05;2.20;;;16.30;96.40;;;;;;5041086;28;45292;-67
2022/06/21 06:41:33;;;;;;;5.15;2.22;;;16.30;97.10;;;;;;5036911;28;45233;-68
2022/06/21 06:44:03;;;;;;;7.43;2.47;;;16.80;95.70;;;;;;5038015;28;45437;-68
2022/06/21 06:46:32;;;;;;;6.05;2.60;;;17.30;94.10;;;;;;5043911;28;45331;-68
2022/06/21 06:49:12;;;;;;;2.25;1.73;;;17.80;93.30;;;;;;5041747;28;45332;-68
2022/06/21 06:51:45;;;;;;;5.22;2.40;;;18.40;90.40;;;;;;5040257;28;45687;-67
2022/06/21 06:54:20;;;;;;;7.68;2.55;;;17.20;93.10;;;;;;5043117;28;45424;-67
2022/06/21 06:56:55;;;;;;;3.17;1.60;;;16.60;95.20;;;;;;5040413;28;45233;-68
2022/06/21 06:59:25;;;;;;;4.07;2.17;;;17.30;93.20;;;;;;5042431;28;48306;-67
2022/06/21 07:01:58;;;;;;;6.22;2.67;;;16.90;94.50;;;;;;5042447;28;45364;-68
2022/06/21 07:04:31;;;;;;;5.85;2.20;;;16.50;94.60;;;;;;5025646;28;45590;-67
2022/06/21 07:07:03;;;;;;;5.38;2.20;;;16.60;95.50;;;;;;5045632;28;45218;-67
2022/06/21 07:09:34;;;;;;;9.30;2.60;;;17.10;94.00;;;;;;5047650;28;46776;-68
2022/06/21 07:12:07;;;;;;;4.45;2.20;;;16.80;94.20;;;;;;5043404;28;45252;-67
2022/06/21 07:14:34;;;;;;;7.82;2.25;;;16.80;94.30;;;;;;5052687;28;45138;-67
2022/06/21 07:17:08;;;;;;;4.10;2.35;;;16.60;94.10;;;;;;5067090;28;45520;-67
2022/06/21 07:19:36;;;;;;;7.18;1.90;;;17.20;93.90;;;;;;5047014;28;48013;-67
2022/06/21 07:22:06;;;;;;;5.03;1.40;;;17.50;93.20;;;;;;5045210;28;45153;-67
2022/06/21 07:24:33;;;;;;;7.68;2.15;;;18.40;88.30;;;;;;5047535;28;45266;-67
2022/06/21 07:27:04;;;;;;;4.50;1.52;;;17.70;91.10;;;;;;5053920;28;45247;-67
2022/06/21 07:29:36;;;;;;;2.70;1.75;;;17.70;92.20;;;;;;5055137;28;45988;-67
2022/06/21 07:32:08;;;;;;;4.75;1.75;;;18.80;86.10;;;;;;5047873;28;45198;-67
2022/06/21 07:34:42;;;;;;;1.90;1.45;;;18.50;89.70;;;;;;5045985;28;45241;-67
2022/06/21 07:37:14;;;;;;;3.85;1.52;;;19.10;87.00;;;;;;5049515;28;45554;-67
2022/06/21 07:39:46;;;;;;;3.53;2.10;;;19.20;85.90;;;;;;5050776;28;45327;-67
2022/06/21 07:42:16;;;;;;;2.28;1.60;;;18.90;85.60;;;;;;5047425;28;46047;-67
2022/06/21 07:44:48;;;;;;;3.95;1.88;;;18.40;90.00;;;;;;5045930;28;45322;-67
2022/06/21 07:47:21;;;;;;;5.03;2.13;;;18.50;83.80;;;;;;5047724;28;45217;-67
2022/06/21 07:49:53;;;;;;;5.32;1.70;;;18.70;85.70;;;;;;5044516;28;47799;-67
2022/06/21 07:52:24;;;;;;;5.60;1.88;;;18.30;88.60;;;;;;5042908;28;45349;-67
2022/06/21 07:54:56;;;;;;;3.70;1.88;;;18.20;87.10;;;;;;5048758;28;45745;-67
2022/06/21 07:57:29;;;;;;;4.60;1.80;;;18.20;90.10;;;;;;5047819;28;45416;-67
2022/06/21 08:00:02;;;;;;;4.57;1.60;;;18.20;80.50;;;;;;5044367;28;46138;-67
2022/06/21 08:08:11;;;;;;;4.43;1.20;;;18.60;80.90;;;;;;5040074;28;45165;-67
2022/06/21 08:10:42;;;;;;;6.05;1.38;;;19.30;84.00;;;;;;5043912;28;48186;-68
2022/06/21 08:13:10;;;;;;;1.48;1.05;;;19.10;82.50;;;;;;5047559;28;45199;-67
2022/06/21 08:15:42;;;;;;;2.33;1.10;;;19.60;81.70;;;;;;5037807;28;45382;-67
2022/06/21 08:18:16;;;;;;;5.32;1.40;;;19.50;81.10;;;;;;5027613;28;45324;-67
2022/06/21 08:20:47;;;;;;;6.97;1.80;;;19.70;80.10;;;;;;5035918;28;46258;-68
2022/06/21 08:23:19;;;;;;;7.28;2.70;;;19.60;76.80;;;;;;5040840;28;45177;-68
2022/06/21 08:25:54;;;;;;;6.32;2.50;;;18.70;76.50;;;;;;5046402;28;45276;-68
2022/06/21 08:28:26;;;;;;;6.25;2.03;;;18.20;79.10;;;;;;5057191;28;46175;-67
2022/06/21 08:30:55;;;;;;;2.83;1.88;;;18.40;84.00;;;;;;5061717;28;46288;-68
2022/06/21 08:33:30;;;;;;;5.18;1.98;;;19.10;78.10;;;;;;5064227;28;45308;-67
2022/06/21 08:36:03;;;;;;;7.50;2.22;;;18.60;77.70;;;;;;5050078;28;45375;-68
2022/06/21 08:38:35;;;;;;;6.32;2.13;;;18.50;79.00;;;;;;5055868;28;45256;-68
2022/06/21 08:45:40;;;;;;;8.85;3.00;;;18.40;78.70;;;;;;5048812;28;45264;-67
2022/06/21 08:48:07;;;;;;;8.50;2.75;;;18.10;80.00;;;;;;5047614;28;45361;-68
2022/06/21 08:51:09;;;;;;;5.18;2.22;;;18.40;81.00;;;;;;5048294;28;45222;-68
2022/06/21 08:53:48;;;;;;;3.00;1.75;;;18.90;77.30;;;;;;5039765;28;46945;-68
2022/06/21 08:56:20;;;;;;;6.60;2.28;;;19.20;78.20;;;;;;5045412;28;45643;-68
2022/06/21 08:59:02;;;;;;;3.80;2.17;;;19.00;78.20;;;;;;5030416;28;45310;-68
2022/06/21 09:01:34;;;;;;;3.70;1.70;;;18.90;80.50;;;;;;5043724;28;45427;-68
2022/06/21 09:04:30;;;;;;;11.90;2.15;;;19.40;77.70;;;;;;5057509;28;47599;-68
2022/06/21 09:07:13;;;;;;;8.95;2.40;;;19.90;77.60;;;;;;5029951;28;45117;-68
2022/06/21 09:09:57;;;;;;;4.32;2.10;;;19.50;76.70;;;;;;5036865;28;45323;-68
2022/06/21 09:12:35;;;;;;;6.75;2.08;;;19.00;76.60;;;;;;5035447;28;45656;-68
2022/06/21 09:15:25;;;;;;;5.22;2.13;;;19.10;80.60;;;;;;5040050;28;45580;-68
2022/06/21 09:18:07;;;;;;;4.85;1.85;;;19.30;78.90;;;;;;5030637;28;45418;-69
2022/06/21 09:20:40;;;;;;;8.02;2.13;;;19.80;76.90;;;;;;5037803;28;45730;-69
2022/06/21 09:23:08;;;;;;;10.05;1.80;;;19.70;72.30;;;;;;5040533;28;45331;-68
2022/06/21 09:25:46;;;;;;;9.60;1.98;;;19.40;73.30;;;;;;5037751;28;46217;-68
2022/06/21 09:28:25;;;;;;;7.20;2.13;;;19.20;72.50;;;;;;5047509;28;45469;-67
2022/06/21 09:30:58;;;;;;;3.92;1.60;;;19.10;75.70;;;;;;5051625;28;45364;-67
2022/06/21 09:33:35;;;;;;;5.88;1.70;;;19.60;70.60;;;;;;5055248;28;45212;-67
2022/06/21 09:36:09;;;;;;;2.45;1.42;;;19.70;70.10;;;;;;5040990;28;46307;-67
2022/06/21 09:38:43;;;;;;;3.35;2.22;;;19.40;70.80;;;;;;5032490;28;45829;-68
2022/06/21 09:41:20;;;;;;;3.78;1.60;;;19.20;72.50;;;;;;5038722;28;45410;-68
2022/06/21 09:44:01;;;;;;;7.90;2.25;;;19.30;72.10;;;;;;5041981;28;45494;-69
2022/06/21 09:46:35;;;;;;;6.28;1.90;;;19.20;71.90;;;;;;5037882;28;45336;-68
2022/06/21 09:49:05;;;;;;;7.40;1.80;;;19.10;72.90;;;;;;5037036;28;45367;-69
2022/06/21 09:51:44;;;;;;;6.63;1.95;;;19.30;71.50;;;;;;5041834;28;45321;-69
2022/06/21 09:54:26;;;;;;;4.97;2.28;;;19.30;74.40;;;;;;5040136;28;45957;-69
2022/06/21 09:57:04;;;;;;;5.18;1.60;;;19.40;73.80;;;;;;5041965;28;45185;-69
2022/06/21 09:59:37;;;;;;;9.65;1.30;;;19.70;71.80;;;;;;5043781;28;45158;-69
2022/06/21 10:02:11;;;;;;;3.13;1.50;;;19.80;72.80;;;;;;5044457;28;45265;-69
2022/06/21 10:04:46;;;;;;;5.18;1.60;;;19.90;70.70;;;;;;5036747;28;46853;-68
2022/06/21 10:07:25;;;;;;;7.30;2.03;;;19.80;71.50;;;;;;5033519;28;45411;-68
2022/06/21 10:10:03;;;;;;;9.90;2.20;;;19.90;72.10;;;;;;5037554;28;45526;-67
2022/06/21 10:12:42;;;;;;;6.03;1.98;;;20.00;69.90;;;;;;5035516;28;45637;-67
2022/06/21 10:15:34;;;;;;;2.90;1.42;;;19.50;72.40;;;;;;5039114;28;46844;-67
2022/06/21 10:18:53;;;;;;;4.50;2.20;;;19.80;72.20;;;;;;5034680;28;45248;-67
2022/06/21 10:21:52;;;;;;;4.97;1.88;;;19.70;70.90;;;;;;4959066;28;45329;-67
2022/06/21 10:24:48;;;;;;;6.10;1.73;;;19.80;70.10;;;;;;5044228;28;45524;-67
2022/06/21 10:27:30;;;;;;;6.10;1.73;;;20.00;71.50;;;;;;5043908;28;45285;-68
2022/06/21 10:30:13;;;;;;;7.40;2.10;;;20.10;71.70;;;;;;5033571;28;46164;-67
2022/06/21 10:32:58;;;;;;;3.47;1.33;;;20.00;72.40;;;;;;5054913;28;45742;-67
2022/06/21 10:35:51;;;;;;;3.40;1.85;;;19.90;73.40;;;;;;5037833;28;45430;-67
2022/06/21 10:38:43;;;;;;;6.93;1.35;;;20.10;71.40;;;;;;5042966;28;45236;-67
2022/06/21 10:41:26;;;;;;;3.33;1.30;;;20.20;71.10;;;;;;5022022;28;46589;-67
2022/06/21 10:44:30;;;;;;;2.67;1.02;;;20.30;71.60;;;;;;5051272;28;45444;-67
2022/06/21 10:47:07;;;;;;;2.45;1.20;;;20.50;72.80;;;;;;5041932;28;47261;-67
2022/06/21 10:49:54;;;;;;;2.28;1.30;;;20.60;71.20;;;;;;5038781;28;45248;-67
2022/06/21 10:52:53;;;;;;;2.38;1.40;;;20.60;72.40;;;;;;5040836;28;45556;-67
2022/06/21 10:55:42;;;;;;;5.13;1.88;;;20.60;71.60;;;;;;5039860;28;45356;-70
2022/06/21 10:58:20;;;;;;;7.45;2.00;;;20.50;72.20;;;;;;5041281;28;45362;-66
2022/06/21 11:04:14;;;;;;;6.93;1.60;;;20.60;67.80;;;;;;5040864;28;45277;-67
2022/06/21 11:06:49;;;;;;;2.30;1.42;;;20.40;69.20;;;;;;5040641;28;45321;-66
2022/06/21 11:09:24;;;;;;;7.00;1.58;;;20.20;70.50;;;;;;5039242;28;45891;-66
2022/06/21 11:11:56;;;;;;;4.78;1.45;;;20.10;70.00;;;;;;5040299;28;45503;-66
2022/06/21 11:14:39;;;;;;;4.57;1.83;;;20.20;73.10;;;;;;5044575;28;45772;-67
2022/06/21 11:17:17;;;;;;;3.65;1.38;;;20.20;73.40;;;;;;5042383;28;45603;-67
2022/06/21 11:19:54;;;;;;;5.60;1.40;;;20.20;68.00;;;;;;5044143;28;45193;-67
2022/06/21 11:22:34;;;;;;;5.32;1.40;;;20.20;69.20;;;;;;5041585;28;45771;-66
2022/06/21 11:25:18;;;;;;;4.00;1.63;;;20.20;69.60;;;;;;5043968;28;45377;-66
2022/06/21 11:27:55;;;;;;;8.02;1.40;;;20.00;72.70;;;;;;5039484;28;45284;-66
2022/06/21 11:30:30;;;;;;;4.95;1.60;;;20.10;68.00;;;;;;5042267;28;45346;-66
2022/06/21 11:33:05;;;;;;;4.60;1.52;;;20.40;68.40;;;;;;5045200;28;45365;-66
2022/06/21 11:35:42;;;;;;;2.47;0.98;;;20.60;69.70;;;;;;5047102;28;45692;-66
2022/06/21 11:38:32;;;;;;;6.70;1.77;;;20.70;70.70;;;;;;5039285;28;45376;-66
2022/06/21 11:41:03;;;;;;;1.88;1.17;;;20.90;64.80;;;;;;5038282;28;45547;-66
2022/06/21 11:43:47;;;;;;;5.05;1.33;;;20.80;66.30;;;;;;5040419;28;45609;-66
2022/06/21 11:46:21;;;;;;;3.95;1.40;;;20.90;67.60;;;;;;5040963;28;48031;-66
2022/06/21 11:49:23;;;;;;;2.55;1.30;;;20.90;68.60;;;;;;5044968;28;45237;-66
2022/06/21 11:52:22;;;;;;;3.47;1.02;;;21.00;69.00;;;;;;5037966;28;45352;-66
2022/06/21 11:54:57;;;;;;;5.18;1.60;;;21.10;67.70;;;;;;5044593;28;45314;-66
2022/06/21 11:57:32;;;;;;;3.08;1.35;;;21.00;69.60;;;;;;5042812;28;46375;-66
2022/06/21 12:00:07;;;;;;;4.28;1.30;;;21.00;67.00;;;;;;5046284;28;45236;-66
2022/06/21 12:02:42;;;;;;;3.60;0.93;;;21.10;63.80;;;;;;5047545;28;45237;-66
2022/06/21 12:05:21;;;;;;;5.03;1.52;;;21.00;68.20;;;;;;5052764;28;45342;-66
2022/06/21 12:07:55;;;;;;;6.63;1.38;;;21.10;64.70;;;;;;5055844;28;46355;-66
2022/06/21 12:10:44;;;;;;;1.83;0.95;;;21.10;69.60;;;;;;5049808;28;45156;-66
2022/06/21 12:13:36;;;;;;;6.32;1.48;;;21.00;69.00;;;;;;5044235;28;45261;-66
2022/06/21 12:16:17;;;;;;;2.67;1.10;;;21.00;61.70;;;;;;5042909;28;45210;-66
2022/06/21 12:18:49;;;;;;;1.52;0.80;;;21.00;68.90;;;;;;5042815;28;45226;-66
2022/06/21 12:21:21;;;;;;;3.67;1.23;;;21.00;70.30;;;;;;5042775;28;45244;-66
2022/06/21 12:23:53;;;;;;;2.42;1.27;;;20.90;67.70;;;;;;5046856;28;45321;-66
2022/06/21 12:26:24;;;;;;;3.30;1.05;;;20.90;65.70;;;;;;5049393;28;45356;-66
2022/06/21 12:28:53;;;;;;;2.28;1.00;;;20.90;70.30;;;;;;5040281;28;45312;-66
2022/06/21 12:31:24;;;;;;;5.57;1.42;;;20.90;71.70;;;;;;5043991;28;45316;-66
2022/06/21 12:33:56;;;;;;;3.67;1.10;;;20.80;68.90;;;;;;5047010;28;45226;-69
2022/06/21 12:36:35;;;;;;;5.47;1.20;;;20.80;68.70;;;;;;5027935;28;45598;-67
2022/06/21 12:39:10;;;;;;;3.17;1.30;;;20.80;69.90;;;;;;5052376;28;45666;-67
2022/06/21 12:42:09;;;;;;;2.08;0.90;;;21.00;67.50;;;;;;5043876;28;45400;-67
2022/06/21 12:44:50;;;;;;;3.67;1.30;;;21.10;71.00;;;;;;5047753;28;45230;-67
2022/06/21 12:47:29;;;;;;;5.82;1.70;;;21.20;63.30;;;;;;5047242;28;45379;-67
2022/06/21 12:50:30;;;;;;;4.50;1.63;;;21.40;62.30;;;;;;5044660;28;48315;-67
2022/06/21 12:53:07;;;;;;;6.00;2.28;;;21.60;60.60;;;;;;5047301;28;45300;-67
2022/06/21 12:55:45;;;;;;;3.03;1.23;;;21.40;64.20;;;;;;5043691;28;45457;-67
2022/06/21 12:58:26;;;;;;;1.73;0.77;;;21.30;67.50;;;;;;5042990;28;45119;-66
2022/06/21 13:00:55;;;;;;;1.52;0.85;;;21.10;69.90;;;;;;5054736;28;45241;-67
2022/06/21 13:04:00;;;;;;;2.70;0.80;;;21.10;70.70;;;;;;5043064;28;45686;-67
2022/06/21 13:06:39;;;;;;;2.35;1.00;;;21.20;70.50;;;;;;5051623;28;45352;-67
2022/06/21 13:09:23;;;;;;;4.68;1.30;;;21.20;70.90;;;;;;5058073;28;45141;-67
2022/06/21 13:12:11;;;;;;;3.72;1.40;;;21.50;60.90;;;;;;5042395;28;45217;-67
2022/06/21 13:15:05;;;;;;;5.05;1.90;;;21.90;59.00;;;;;;5039679;28;45627;-67
2022/06/21 13:17:53;;;;;;;5.32;1.95;;;21.90;60.10;;;;;;5049519;28;45248;-66
2022/06/21 13:20:31;;;;;;;4.03;1.70;;;21.90;57.50;;;;;;5046369;28;46233;-66
2022/06/21 13:23:07;;;;;;;5.55;2.45;;;21.70;57.80;;;;;;5034010;28;46597;-66
2022/06/21 13:25:45;;;;;;;5.50;1.80;;;21.40;60.00;;;;;;5031620;28;45317;-67
2022/06/21 13:28:22;;;;;;;4.05;1.40;;;21.50;62.70;;;;;;5036111;28;45344;-67
2022/06/21 13:30:55;;;;;;;3.65;1.30;;;21.90;58.00;;;;;;5052168;28;45253;-66
2022/06/21 13:33:27;;;;;;;2.70;1.20;;;22.10;57.90;;;;;;5053150;28;46267;-66
2022/06/21 13:36:00;;;;;;;2.97;1.02;;;22.10;56.30;;;;;;5045851;28;45290;-66